LFKF/FSC METAR and TAF weather

Enter ICAO airport designator
Station Type Date Time Source
LFKF METAR 2019/12/07 15:00 UTC NOAA

LFKF 071500Z AUTO 26015KT 9999 FEW029 16/10 Q1020 NOSIG


Station Type Date Time Source
LFKF Decoded METAR 2019/12/07 15:00 UTC NOAA

Figari, France (LFKF) 41-30N 009-06E 23M
Dec 07, 2019 - 10:00 AM EST / 2019.12.07 1500 UTC
Wind: from the W (260 degrees) at 17 MPH (15 KT):0
Visibility: greater than 7 mile(s):0
Sky conditions: mostly clear
Temperature: 60 F (16 C)
Dew Point: 50 F (10 C)
Relative Humidity: 67%
Pressure (altimeter): 30.12 in. Hg (1020 hPa)
ob: LFKF 071500Z AUTO 26015KT 9999 FEW029 16/10 Q1020 NOSIG
cycle: 15

Station Type Date Time Source
LFKF TAF 2019/12/07 15:21 UTC NOAA

TAF TAF LFKF 071400Z 0715/0815 26013KT 9999 FEW030

Example: see airport list